Erere, Brazil
Current Conditions -  °F | °C
As of 11:00 AM on Wednesday 26 Nov 2014 (Local Time) from SBSN Reporting Station
Few Clouds Few Clouds  
Wind Chill: 88°   Ceiling: Unl
Heat Index: 98°   Visibility: 6mi
Dew Point: 75°   Wind: 8mph
Humidity: 66%   Direction: 90°E
Pressure: 29.83"   Gusts: NA
Location:  1.99°S, 54.18°W
Report Text: SBSN 261400Z 09007KT 9999 FEW020 31/24 Q1010
Loading
Personal Weather Stations






























Interactive Weather Map New forecast layout! Learn more

10-Day Weather Forecast

Advertisements
Track Severe Weather on mobile